Airfield :
LOGIN :

Register | Disclaimer

   EN    FR    IT 

 










Legend :    VFR   Marginal VFR   IFR   Intensive IFR   Very Intensive IFR
Visi :
Ceiling :
>= 8 km
>= 3000ft
5 to 8 km
1000 to 3000 ft
1500m to 5 km
500 to 1000 ft
800 to 1500m
200 to 500 ft
< 800m
< 200 ft
Symbols :   Thunderstorms  Fog  Heavy snow  Heavy precipitations  Wind > 20 kt
SIGMETs :     Misc.  Thunderstorms  Icing  Turbulence  Mountain Waves  Volcanic Ashes







- Airport Elevation : 388 ft
- IATA code : QYR
- Download approach charts


LFQB - Troyes Barberey

CURRENT METAR :
  • 180730Z AUTO 23024G35KT 7000 -RADZ BKN016 BKN022 BKN027 09/07 Q1007

EXPIRED METARs :
  • 180700Z AUTO 22027G40KT 7000 DZ BKN018 BKN024 BKN034 09/07 Q1006
  • 180630Z AUTO 23026KT 9999 SCT018 BKN024 BKN030 09/07 Q1006
  • 180600Z AUTO 23024G35KT 9999 -RA SCT016 BKN021 BKN026 08/06 Q1007
  • 180530Z AUTO 22025G36KT 9999 DZ FEW017 SCT024 BKN042 08/06 Q1007
  • 180500Z AUTO 22026KT 4800 -RA BR BKN021 BKN028 BKN041 08/06 Q1007

TAF N/A
No reported NOTAMs for that airfield.
3 SIGMETs reported for the Paris FIR (LFFF) :
 
Severe turbulence
LFFF SIGMET 4 VALID 180600/180900 LFPW
LFFF PARIS FIR/UIR SEV TURB FCST NW OF LINE N4745 E00445 - N4715 W00015 SFC/FL060 STNR NC=
SIGMET 2  cancelation
LFFF SIGMET 3 VALID 180445/180900 LFPW
LFFF PARIS FIR/UIR CNL SIGMET 2 180500/180900=
SIGMET 2  CANCELED :
Severe turbulence
LFFF SIGMET 2 VALID 180500/180900 LFPW
LFFF PARIS FIR/UIR SEV TURB FCST WI N5000 E00500 - N4930 E00600 - N4900 E00445 - N4830 E00530 - N4730 E00415 - N4700 E00430 - N4700 E00400 - N5000 E00500 SFC/FL060 STNR INTSF=



MET'MAP, your aeronautical weather chart ! - Copyright ORBIFLY December 2007 - Disclaimer

ORBIFLY MET'MAP TEAM :

Programming & Development : Alexandra Zaïnal
Concept & Development : Baudouin d'Aumeries
Co-Development & Prog : Marc-Olivier Méhu
Technical & hardware support : Manuel Goepfert

Contact : metmap@orbifly.com




SOURCES & CREDITS :

   NOAA